createdAt,value
2023-01-13T00:00:34.315Z,7.91
2023-01-13T00:03:02.520Z,7.90
2023-01-13T00:05:30.575Z,7.86
2023-01-13T00:07:58.618Z,7.81
2023-01-13T00:10:26.812Z,7.87
2023-01-13T00:12:54.860Z,7.86
2023-01-13T00:15:24.393Z,7.77
2023-01-13T00:17:52.971Z,7.83
2023-01-13T00:20:21.232Z,7.77
2023-01-13T00:22:49.401Z,7.80
2023-01-13T00:25:17.658Z,7.81
2023-01-13T00:27:45.719Z,7.76
2023-01-13T00:30:14.448Z,7.77
2023-01-13T00:32:43.861Z,7.74
2023-01-13T00:35:12.911Z,7.75
2023-01-13T00:37:43.016Z,7.75
2023-01-13T00:40:12.699Z,7.73
2023-01-13T00:42:58.110Z,7.72
2023-01-13T00:45:26.231Z,7.72
2023-01-13T00:47:58.127Z,7.73
2023-01-13T00:50:27.093Z,7.68
2023-01-13T00:52:55.163Z,7.73
2023-01-13T00:55:23.216Z,7.71
2023-01-13T00:57:51.341Z,7.67
2023-01-13T01:00:20.418Z,7.65
2023-01-13T01:02:48.619Z,7.60
2023-01-13T01:05:18.437Z,7.60
2023-01-13T01:07:46.492Z,7.54
2023-01-13T01:10:14.943Z,7.57
2023-01-13T01:12:43.209Z,7.54
2023-01-13T01:15:12.513Z,7.59
2023-01-13T01:17:40.626Z,7.58
2023-01-13T01:20:10.130Z,7.56
2023-01-13T01:22:39.723Z,7.58
2023-01-13T01:25:08.944Z,7.58
2023-01-13T01:27:39.418Z,7.53
2023-01-13T01:30:08.957Z,7.50
2023-01-13T01:32:37.309Z,7.48
2023-01-13T01:35:07.975Z,7.53
2023-01-13T01:37:36.114Z,7.46
2023-01-13T01:40:06.094Z,7.48
2023-01-13T01:42:51.773Z,7.45
2023-01-13T01:45:21.063Z,7.47
2023-01-13T01:47:56.517Z,7.44
2023-01-13T01:50:25.438Z,7.43
2023-01-13T01:52:57.150Z,7.42
2023-01-13T01:55:30.672Z,7.42
2023-01-13T01:58:03.395Z,7.45
2023-01-13T02:00:33.427Z,7.41
2023-01-13T02:03:28.229Z,7.39
2023-01-13T02:05:56.602Z,7.37
2023-01-13T02:08:24.676Z,7.43
2023-01-13T02:10:55.272Z,7.37
2023-01-13T02:13:24.078Z,7.39
2023-01-13T02:15:59.554Z,7.36
2023-01-13T02:18:39.384Z,7.38
2023-01-13T02:21:45.449Z,7.36
2023-01-13T02:24:56.045Z,7.34
2023-01-13T02:27:51.054Z,7.33
2023-01-13T02:30:45.164Z,7.31
2023-01-13T02:33:33.038Z,7.26
2023-01-13T02:36:06.781Z,7.27
2023-01-13T02:38:40.515Z,7.30
2023-01-13T02:41:32.953Z,7.27
2023-01-13T02:44:10.912Z,7.30
2023-01-13T02:46:53.372Z,7.30
2023-01-13T02:49:28.671Z,7.27
2023-01-13T02:52:01.891Z,7.32
2023-01-13T02:54:32.566Z,7.28
2023-01-13T02:57:02.495Z,7.33
2023-01-13T02:59:32.502Z,7.28
2023-01-13T03:02:04.080Z,7.27
2023-01-13T03:04:51.281Z,7.30
2023-01-13T03:07:44.597Z,7.24
2023-01-13T03:10:23.282Z,7.27
2023-01-13T03:13:01.634Z,7.24
2023-01-13T03:15:40.429Z,7.24
2023-01-13T03:18:20.091Z,7.18
2023-01-13T03:20:58.517Z,7.20
2023-01-13T03:23:34.143Z,7.23
2023-01-13T03:26:09.342Z,7.21
2023-01-13T03:28:44.240Z,7.22
2023-01-13T03:31:16.166Z,7.15
2023-01-13T03:33:51.547Z,7.17
2023-01-13T03:36:25.769Z,7.26
2023-01-13T03:38:58.553Z,7.30
2023-01-13T03:41:30.274Z,7.26
2023-01-13T03:44:27.338Z,7.21
2023-01-13T03:47:10.506Z,7.21
2023-01-13T03:49:45.328Z,7.23
2023-01-13T03:52:18.737Z,7.22
2023-01-13T03:54:51.875Z,7.28
2023-01-13T03:57:24.364Z,7.33
2023-01-13T03:59:57.129Z,7.27
2023-01-13T04:02:37.081Z,7.16
2023-01-13T04:05:09.917Z,7.23
2023-01-13T04:07:48.428Z,7.19
2023-01-13T04:10:21.364Z,7.30
2023-01-13T04:13:04.391Z,7.28
2023-01-13T04:15:37.045Z,7.29
2023-01-13T04:18:17.291Z,7.33
2023-01-13T04:20:48.303Z,7.37
2023-01-13T04:23:17.484Z,7.35
2023-01-13T04:25:46.641Z,7.33
2023-01-13T04:28:15.384Z,7.36
2023-01-13T04:30:44.573Z,7.35
2023-01-13T04:33:14.550Z,7.35
2023-01-13T04:35:42.844Z,7.38
2023-01-13T04:38:14.421Z,7.36
2023-01-13T04:40:42.944Z,7.27
2023-01-13T04:43:11.144Z,7.32
2023-01-13T04:45:39.186Z,7.24
2023-01-13T04:48:07.745Z,7.28
2023-01-13T04:50:35.945Z,7.22
2023-01-13T04:53:04.015Z,7.26
2023-01-13T04:55:33.466Z,7.22
2023-01-13T04:58:05.409Z,7.24
2023-01-13T05:00:33.837Z,7.27
2023-01-13T05:03:02.166Z,7.18
2023-01-13T05:05:31.588Z,7.17
2023-01-13T05:07:59.681Z,7.19
2023-01-13T05:10:28.575Z,7.24
2023-01-13T05:13:15.366Z,7.15
2023-01-13T05:16:02.129Z,7.18
2023-01-13T05:18:31.876Z,7.23
2023-01-13T05:20:59.857Z,7.13
2023-01-13T05:23:46.370Z,7.18
2023-01-13T05:26:14.339Z,7.14
2023-01-13T05:28:43.700Z,7.16
2023-01-13T05:31:13.194Z,7.18
2023-01-13T05:33:41.227Z,7.21
2023-01-13T05:36:10.045Z,7.20
2023-01-13T05:38:38.072Z,7.17
2023-01-13T05:41:23.833Z,7.16
2023-01-13T05:43:53.178Z,7.24
2023-01-13T05:46:21.358Z,7.14
2023-01-13T05:48:49.684Z,7.17
2023-01-13T05:51:17.762Z,7.18
2023-01-13T05:53:45.747Z,7.17
2023-01-13T05:56:13.956Z,7.17
2023-01-13T05:58:41.898Z,7.16
2023-01-13T06:01:12.057Z,7.17
2023-01-13T06:03:40.042Z,7.20
2023-01-13T06:06:09.069Z,7.17
2023-01-13T06:08:39.620Z,7.08
2023-01-13T06:11:07.964Z,7.06
2023-01-13T06:13:36.029Z,7.09
2023-01-13T06:16:04.411Z,7.10
2023-01-13T06:18:33.978Z,7.07
2023-01-13T06:21:02.035Z,7.07
2023-01-13T06:23:34.959Z,7.13
2023-01-13T06:26:29.771Z,7.07
2023-01-13T06:28:57.880Z,7.15
2023-01-13T06:31:28.702Z,7.10
2023-01-13T06:34:07.049Z,7.09
2023-01-13T06:36:42.367Z,7.10
2023-01-13T06:39:15.136Z,7.10
2023-01-13T06:42:00.677Z,7.16
2023-01-13T06:44:29.883Z,7.15
2023-01-13T06:46:58.050Z,7.14
2023-01-13T06:49:27.527Z,7.15
2023-01-13T06:51:56.706Z,7.23
2023-01-13T06:54:26.330Z,7.22
2023-01-13T06:56:55.605Z,7.25
2023-01-13T06:59:23.687Z,7.23
2023-01-13T07:01:52.959Z,7.25
2023-01-13T07:04:21.062Z,7.23
2023-01-13T07:06:50.400Z,7.21
2023-01-13T07:09:18.539Z,7.25
2023-01-13T07:11:46.799Z,7.29
2023-01-13T07:14:32.533Z,7.31
2023-01-13T07:17:00.647Z,7.25
2023-01-13T07:19:31.560Z,7.23
2023-01-13T07:22:00.964Z,7.27
2023-01-13T07:24:29.065Z,7.28
2023-01-13T07:26:57.062Z,7.24
2023-01-13T07:29:25.139Z,7.21
2023-01-13T07:31:53.564Z,7.24
2023-01-13T07:34:21.562Z,7.23
2023-01-13T07:36:50.626Z,7.21
2023-01-13T07:39:20.119Z,7.25
2023-01-13T07:42:05.660Z,7.23
2023-01-13T07:44:33.799Z,7.23
2023-01-13T07:47:02.068Z,7.21
2023-01-13T07:49:30.102Z,7.22
2023-01-13T07:52:00.106Z,7.25
2023-01-13T07:54:40.105Z,7.21
2023-01-13T07:57:08.506Z,7.19
2023-01-13T07:59:36.877Z,7.24
2023-01-13T08:02:05.124Z,7.24
2023-01-13T08:04:33.377Z,7.23
2023-01-13T08:07:01.362Z,7.31
2023-01-13T08:09:30.919Z,7.35
2023-01-13T08:12:14.911Z,7.32
2023-01-13T08:14:43.584Z,7.33
2023-01-13T08:17:11.943Z,7.28
2023-01-13T08:19:40.044Z,7.31
2023-01-13T08:22:08.168Z,7.29
2023-01-13T08:24:37.607Z,7.28
2023-01-13T08:27:05.781Z,7.30
2023-01-13T08:29:33.868Z,7.31
2023-01-13T08:32:01.929Z,7.29
2023-01-13T08:34:30.066Z,7.40
2023-01-13T08:36:58.071Z,7.36
2023-01-13T08:39:26.266Z,7.39
2023-01-13T08:41:58.795Z,7.39
2023-01-13T08:49:11.924Z,7.43
2023-01-13T08:51:39.944Z,7.46
2023-01-13T08:54:07.927Z,7.45
2023-01-13T08:56:36.036Z,7.50
2023-01-13T08:59:06.182Z,7.53
2023-01-13T09:01:34.374Z,7.56
2023-01-13T09:04:02.546Z,7.58
2023-01-13T09:06:30.674Z,7.59
2023-01-13T09:08:58.891Z,7.58
2023-01-13T09:11:49.602Z,7.68
2023-01-13T09:14:24.191Z,7.72
2023-01-13T09:16:52.376Z,7.70
2023-01-13T09:19:20.508Z,7.73
2023-01-13T09:21:48.677Z,7.84
2023-01-13T09:24:16.997Z,7.85
2023-01-13T09:26:45.270Z,7.81
2023-01-13T09:29:13.480Z,7.81
2023-01-13T09:31:44.467Z,7.82
2023-01-13T09:34:32.658Z,7.90
2023-01-13T09:37:00.845Z,7.90
2023-01-13T09:39:28.914Z,7.92
2023-01-13T09:42:17.981Z,7.98
2023-01-13T09:44:55.046Z,7.97
2023-01-13T09:47:28.913Z,8.05
2023-01-13T09:50:03.446Z,8.07
2023-01-13T09:52:31.598Z,8.14
2023-01-13T09:55:03.928Z,8.16
2023-01-13T09:57:37.518Z,8.18
2023-01-13T10:00:12.926Z,8.25
2023-01-13T10:03:09.679Z,8.24
2023-01-13T10:05:39.883Z,8.28
2023-01-13T10:08:14.687Z,8.29
2023-01-13T10:10:48.202Z,8.34
2023-01-13T10:13:20.215Z,8.34
2023-01-13T10:16:04.618Z,8.32
2023-01-13T10:18:45.828Z,8.38
2023-01-13T10:21:34.422Z,8.35
2023-01-13T10:24:04.974Z,8.37
2023-01-13T10:26:50.315Z,8.46
2023-01-13T10:29:24.849Z,8.45
2023-01-13T10:31:54.237Z,8.47
2023-01-13T10:34:25.082Z,8.54
2023-01-13T10:37:00.840Z,8.55
2023-01-13T10:39:29.625Z,8.68
2023-01-13T10:42:05.061Z,8.68
2023-01-13T10:44:33.352Z,8.72
2023-01-13T10:47:01.343Z,8.70
2023-01-13T10:49:34.088Z,8.73
2023-01-13T10:52:03.344Z,8.71
2023-01-13T10:54:32.874Z,8.70
2023-01-13T10:57:21.145Z,8.71
2023-01-13T10:59:50.950Z,8.69
2023-01-13T11:02:27.004Z,8.70
2023-01-13T11:05:09.945Z,8.75
2023-01-13T11:07:41.525Z,8.77
2023-01-13T11:10:22.090Z,8.87
2023-01-13T11:13:00.113Z,9.01
2023-01-13T11:15:39.567Z,8.96
2023-01-13T11:18:19.039Z,9.06
2023-01-13T11:20:51.918Z,9.06
2023-01-13T11:23:27.346Z,9.12
2023-01-13T11:26:00.322Z,9.17
2023-01-13T11:28:39.962Z,9.16
2023-01-13T11:31:14.743Z,9.18
2023-01-13T11:33:46.292Z,9.24
2023-01-13T11:36:20.713Z,9.21
2023-01-13T11:38:51.964Z,9.22
2023-01-13T11:41:29.640Z,9.22
2023-01-13T11:44:06.746Z,9.23
2023-01-13T11:46:35.128Z,9.19
2023-01-13T11:49:04.176Z,9.20
2023-01-13T11:51:40.283Z,9.23
2023-01-13T11:54:27.606Z,9.32
2023-01-13T11:57:26.330Z,9.28
2023-01-13T12:00:22.777Z,9.30
2023-01-13T12:02:59.691Z,9.35
2023-01-13T12:05:37.360Z,9.42
2023-01-13T12:08:19.785Z,9.42
2023-01-13T12:11:00.323Z,9.42
2023-01-13T12:13:41.159Z,9.44
2023-01-13T12:16:23.544Z,9.45
2023-01-13T12:19:27.946Z,9.47
2023-01-13T12:22:08.711Z,9.48
2023-01-13T12:24:45.529Z,9.52
2023-01-13T12:27:19.378Z,9.63
2023-01-13T12:29:50.118Z,9.54
2023-01-13T12:32:21.923Z,9.54
2023-01-13T12:35:05.123Z,9.63
2023-01-13T12:37:42.885Z,9.75
2023-01-13T12:40:27.134Z,9.76
2023-01-13T12:43:22.217Z,9.81
2023-01-13T12:45:50.358Z,9.80
2023-01-13T12:49:04.615Z,9.80
2023-01-13T12:51:35.718Z,9.83
2023-01-13T12:54:04.489Z,9.91
2023-01-13T12:56:40.751Z,9.81
2023-01-13T12:59:34.760Z,9.79
2023-01-13T13:02:27.148Z,9.77
2023-01-13T13:04:58.291Z,9.79
2023-01-13T13:07:39.659Z,9.76
2023-01-13T13:10:18.459Z,9.79
2023-01-13T13:13:18.114Z,9.68
2023-01-13T13:15:47.146Z,9.72
2023-01-13T13:18:27.491Z,9.76
2023-01-13T13:20:59.439Z,9.65
2023-01-13T13:23:36.165Z,9.72
2023-01-13T13:26:14.951Z,9.70
2023-01-13T13:28:53.707Z,9.79
2023-01-13T13:31:33.765Z,9.62
2023-01-13T13:34:21.683Z,9.71
2023-01-13T13:37:03.607Z,9.72
2023-01-13T13:39:51.844Z,9.67
2023-01-13T13:42:40.969Z,9.62
2023-01-13T13:45:35.372Z,9.71
2023-01-13T13:48:22.419Z,9.62
2023-01-13T13:50:51.432Z,9.72
2023-01-13T13:53:20.870Z,9.80
2023-01-13T13:55:58.522Z,9.75
2023-01-13T13:58:33.525Z,9.80
2023-01-13T14:01:05.418Z,9.71
2023-01-13T14:03:37.815Z,9.69
2023-01-13T14:06:09.020Z,9.81
2023-01-13T14:08:39.496Z,9.73
2023-01-13T14:11:26.703Z,9.69
2023-01-13T14:14:02.812Z,9.76
2023-01-13T14:16:32.876Z,9.77
2023-01-13T14:19:01.375Z,9.79
2023-01-13T14:21:30.859Z,9.80
2023-01-13T14:24:01.558Z,9.81
2023-01-13T14:26:32.237Z,9.80
2023-01-13T14:29:02.848Z,9.87
2023-01-13T14:31:33.099Z,9.86
2023-01-13T14:34:32.686Z,9.85
2023-01-13T14:36:52.848Z,9.88
2023-01-13T14:39:26.041Z,9.96
2023-01-13T14:41:54.348Z,9.87
2023-01-13T14:44:26.924Z,9.89
2023-01-13T14:46:58.689Z,9.99
2023-01-13T14:49:32.540Z,9.93
2023-01-13T14:52:12.889Z,9.85
2023-01-13T14:54:46.045Z,9.91
2023-01-13T14:57:16.345Z,9.86
2023-01-13T15:00:01.774Z,9.97
2023-01-13T15:02:50.564Z,9.84
2023-01-13T15:05:31.851Z,9.84
2023-01-13T15:08:02.949Z,9.84
2023-01-13T15:10:32.457Z,9.86
2023-01-13T15:13:02.689Z,9.79
2023-01-13T15:15:33.783Z,9.81
2023-01-13T15:18:04.007Z,9.71
2023-01-13T15:20:31.988Z,9.67
2023-01-13T15:23:01.208Z,9.59
2023-01-13T15:25:33.310Z,9.58
2023-01-13T15:28:02.746Z,9.58
2023-01-13T15:30:30.854Z,9.57
2023-01-13T15:32:59.694Z,9.58
2023-01-13T15:35:30.603Z,9.48
2023-01-13T15:37:58.782Z,9.49
2023-01-13T15:40:31.363Z,9.45
2023-01-13T15:43:17.067Z,9.49
2023-01-13T15:46:04.363Z,9.39
2023-01-13T15:48:33.705Z,9.37
2023-01-13T15:51:06.832Z,9.32
2023-01-13T15:53:36.980Z,9.35
2023-01-13T15:56:10.307Z,9.24
2023-01-13T15:58:38.410Z,9.30
2023-01-13T16:01:06.455Z,9.24
2023-01-13T16:03:34.552Z,9.22
2023-01-13T16:06:12.140Z,9.20
2023-01-13T16:08:40.132Z,9.25
2023-01-13T16:11:09.637Z,9.22
2023-01-13T16:13:37.680Z,9.19
2023-01-13T16:16:17.169Z,9.12
2023-01-13T16:18:45.479Z,9.14
2023-01-13T16:21:15.659Z,9.07
2023-01-13T16:23:43.680Z,9.07
2023-01-13T16:26:21.722Z,9.04
2023-01-13T16:28:51.056Z,9.10
2023-01-13T16:31:23.959Z,9.12
2023-01-13T16:33:52.147Z,9.00
2023-01-13T16:36:22.712Z,9.03
2023-01-13T16:38:52.580Z,8.97
2023-01-13T16:41:22.098Z,8.94
2023-01-13T16:43:50.182Z,8.92
2023-01-13T16:46:21.924Z,8.91
2023-01-13T16:48:52.292Z,8.90
2023-01-13T16:51:22.591Z,8.83
2023-01-13T16:53:51.213Z,8.82
2023-01-13T16:56:24.794Z,8.77
2023-01-13T16:58:54.128Z,8.73
2023-01-13T17:01:25.247Z,8.70
2023-01-13T17:03:54.265Z,8.66
2023-01-13T17:06:26.498Z,8.68
2023-01-13T17:08:54.656Z,8.70
2023-01-13T17:11:22.788Z,8.62
2023-01-13T17:13:50.807Z,8.64
2023-01-13T17:16:21.551Z,8.61
2023-01-13T17:18:49.749Z,8.56
2023-01-13T17:21:17.816Z,8.60
2023-01-13T17:23:47.329Z,8.55
2023-01-13T17:26:37.178Z,8.46
2023-01-13T17:29:07.339Z,8.51
2023-01-13T17:31:36.935Z,8.45
2023-01-13T17:34:06.323Z,8.47
2023-01-13T17:36:34.472Z,8.40
2023-01-13T17:39:04.008Z,8.46
2023-01-13T17:41:32.210Z,8.39
2023-01-13T17:44:00.426Z,8.39
2023-01-13T17:46:31.279Z,8.36
2023-01-13T17:48:59.465Z,8.29
2023-01-13T17:51:27.810Z,8.31
2023-01-13T17:53:55.939Z,8.23
2023-01-13T17:56:25.587Z,8.23
2023-01-13T17:58:53.595Z,8.21
2023-01-13T18:01:23.651Z,8.17
2023-01-13T18:03:52.424Z,8.17
2023-01-13T18:06:23.198Z,8.19
2023-01-13T18:08:51.510Z,8.17
2023-01-13T18:11:20.947Z,8.05
2023-01-13T18:13:55.069Z,8.06
2023-01-13T18:16:23.810Z,8.04
2023-01-13T18:18:53.086Z,7.99
2023-01-13T18:21:41.126Z,7.89
2023-01-13T18:24:30.615Z,7.95
2023-01-13T18:27:16.781Z,7.89
2023-01-13T18:29:46.530Z,7.90
2023-01-13T18:32:15.483Z,7.82
2023-01-13T18:34:43.512Z,7.81
2023-01-13T18:37:12.831Z,7.85
2023-01-13T18:39:41.288Z,7.79
2023-01-13T18:42:28.307Z,7.78
2023-01-13T18:44:58.065Z,7.72
2023-01-13T18:47:28.643Z,7.70
2023-01-13T18:49:56.831Z,7.64
2023-01-13T18:52:25.213Z,7.66
2023-01-13T18:54:53.441Z,7.53
2023-01-13T18:57:22.468Z,7.62
2023-01-13T18:59:50.582Z,7.53
2023-01-13T19:02:21.892Z,7.46
2023-01-13T19:04:50.197Z,7.52
2023-01-13T19:07:23.495Z,7.49
2023-01-13T19:09:51.522Z,7.47
2023-01-13T19:12:26.020Z,7.43
2023-01-13T19:14:54.576Z,7.40
2023-01-13T19:17:25.740Z,7.40
2023-01-13T19:19:57.355Z,7.41
2023-01-13T19:22:29.619Z,7.40
2023-01-13T19:24:58.241Z,7.41
2023-01-13T19:27:28.034Z,7.36
2023-01-13T19:29:58.268Z,7.38
2023-01-13T19:32:28.433Z,7.35
2023-01-13T19:34:59.424Z,7.35
2023-01-13T19:37:30.193Z,7.31
2023-01-13T19:39:59.765Z,7.27
2023-01-13T19:42:45.900Z,7.22
2023-01-13T19:45:27.369Z,7.21
2023-01-13T19:47:57.952Z,7.12
2023-01-13T19:50:26.896Z,7.14
2023-01-13T19:52:55.046Z,7.10
2023-01-13T19:55:23.086Z,7.12
2023-01-13T19:57:51.182Z,7.06
2023-01-13T20:00:21.110Z,7.04
2023-01-13T20:02:51.957Z,7.02
2023-01-13T20:05:25.684Z,7.03
2023-01-13T20:07:54.081Z,6.98
2023-01-13T20:10:23.678Z,6.96
2023-01-13T20:12:51.821Z,6.95
2023-01-13T20:15:20.424Z,6.97
2023-01-13T20:17:48.671Z,6.94
2023-01-13T20:20:44.287Z,6.91
2023-01-13T20:23:12.699Z,6.93
2023-01-13T20:25:43.093Z,6.87
2023-01-13T20:28:11.454Z,6.85
2023-01-13T20:30:41.711Z,6.87
2023-01-13T20:33:09.856Z,6.85
2023-01-13T20:35:37.871Z,6.85
2023-01-13T20:38:07.278Z,6.79
2023-01-13T20:40:35.335Z,6.86
2023-01-13T20:43:02.447Z,6.88
2023-01-13T20:45:30.467Z,6.84
2023-01-13T20:47:58.423Z,6.78
2023-01-13T20:50:26.516Z,6.87
2023-01-13T20:52:54.731Z,6.83
2023-01-13T20:55:24.463Z,6.79
2023-01-13T20:57:52.555Z,6.82
2023-01-13T21:00:22.455Z,6.81
2023-01-13T21:02:50.775Z,6.88
2023-01-13T21:05:19.022Z,6.92
2023-01-13T21:07:47.257Z,6.82
2023-01-13T21:10:15.358Z,6.91
2023-01-13T21:13:02.205Z,6.95
2023-01-13T21:15:31.337Z,6.91
2023-01-13T21:18:16.874Z,6.85
2023-01-13T21:20:45.133Z,6.82
2023-01-13T21:23:13.195Z,6.83
2023-01-13T21:25:41.267Z,6.86
2023-01-13T21:28:13.470Z,6.80
2023-01-13T21:30:41.851Z,6.83
2023-01-13T21:33:13.994Z,6.78
2023-01-13T21:35:42.264Z,6.81
2023-01-13T21:38:12.074Z,6.82
2023-01-13T21:40:40.286Z,6.78
2023-01-13T21:43:30.783Z,6.82
2023-01-13T21:46:16.284Z,6.82
2023-01-13T21:48:45.368Z,6.85
2023-01-13T21:51:13.367Z,6.86
2023-01-13T21:53:41.667Z,6.84
2023-01-13T21:56:09.667Z,6.83
2023-01-13T21:58:40.018Z,6.85
2023-01-13T22:01:09.798Z,6.81
2023-01-13T22:03:54.532Z,6.78
2023-01-13T22:06:22.893Z,6.78
2023-01-13T22:08:53.913Z,6.75
2023-01-13T22:11:21.976Z,6.75
2023-01-13T22:14:07.150Z,6.73
2023-01-13T22:16:37.727Z,6.74
2023-01-13T22:19:06.694Z,6.78
2023-01-13T22:21:34.998Z,6.76
2023-01-13T22:24:03.331Z,6.81
2023-01-13T22:26:31.355Z,6.75
2023-01-13T22:29:02.277Z,6.78
2023-01-13T22:31:31.597Z,6.80
2023-01-13T22:33:59.667Z,6.80
2023-01-13T22:36:27.842Z,6.79
2023-01-13T22:38:57.029Z,6.75
2023-01-13T22:45:36.367Z,6.84
2023-01-13T22:48:04.531Z,6.83
2023-01-13T22:50:33.993Z,6.87
2023-01-13T22:53:02.033Z,6.82
2023-01-13T22:55:30.183Z,6.92
2023-01-13T22:57:58.141Z,6.89
2023-01-13T23:00:26.195Z,6.88
2023-01-13T23:02:55.525Z,6.86
2023-01-13T23:05:23.528Z,6.89
2023-01-13T23:07:51.725Z,6.93
2023-01-13T23:10:19.806Z,6.97
2023-01-13T23:13:39.421Z,6.98
2023-01-13T23:16:09.773Z,6.98
2023-01-13T23:18:39.491Z,6.98
2023-01-13T23:21:10.600Z,7.08
2023-01-13T23:23:39.104Z,7.04
2023-01-13T23:26:10.553Z,7.14
2023-01-13T23:28:39.415Z,7.14
2023-01-13T23:31:08.508Z,7.15
2023-01-13T23:33:37.923Z,7.19
2023-01-13T23:36:11.572Z,7.17
2023-01-13T23:38:40.308Z,7.20
2023-01-13T23:41:09.195Z,7.28
2023-01-13T23:43:37.572Z,7.24
2023-01-13T23:46:07.586Z,7.31
2023-01-13T23:48:36.625Z,7.25
2023-01-13T23:51:08.701Z,7.36
2023-01-13T23:53:40.457Z,7.30
2023-01-13T23:56:11.983Z,7.39
2023-01-13T23:58:40.098Z,7.36
